This is the latest recevied weather packets stored in our database for station/object LU8FJH-13. If no packets are shown the sender has not sent any weather packets the latest 1 day(s).
| Time | Temp. | Humidity | Pressure | Rain* | Wind** | Luminosity | Snow |
|---|---|---|---|---|---|---|---|
| 1778008200 | 27.22° C | 72% | 1010.2 hPa | 0 mm | 0 m/s | - | - |
| 1778007660 | 27.22° C | 71% | 1010.1 hPa | 0 mm | 0 m/s | - | - |
| 1778007120 | 27.22° C | 69% | 1009.9 hPa | 0 mm | 0.45 m/s, 305° | - | - |
| 1778006580 | 27.78° C | 68% | 1010.1 hPa | 0 mm | 0 m/s | - | - |
| 1778006040 | 28.33° C | 66% | 1010.2 hPa | 0 mm | 0 m/s | - | - |
| 1778005500 | 28.33° C | 66% | 1010.2 hPa | 0 mm | 0 m/s | - | - |
| 1778004960 | 28.89° C | 65% | 1010 hPa | 0 mm | 0.89 m/s, 42° | - | - |
| 1778004420 | 28.89° C | 63% | 1010.2 hPa | 0 mm | 0.45 m/s, 14° | - | - |
| 1778003880 | 28.89° C | 66% | 1010.1 hPa | 0 mm | 0 m/s | - | - |
| 1778003340 | 28.33° C | 65% | 1010.4 hPa | 0 mm | 0.45 m/s, 101° | - | - |
| 1778002802 | 28.33° C | 66% | 1010.2 hPa | 0 mm | 0 m/s | - | - |
| 1778002260 | 27.22° C | 69% | 1010.3 hPa | 0 mm | 0.89 m/s, 220° | - | - |
| 1778001720 | 27.22° C | 69% | 1010.6 hPa | 0 mm | 0 m/s | - | - |
| 1778001180 | 27.22° C | 70% | 1010.7 hPa | 0 mm | 0 m/s | - | - |
| 1778000640 | 26.67° C | 70% | 1010.8 hPa | 0 mm | 0.45 m/s, 270° | - | - |
| 1778000100 | 27.78° C | 69% | 1010.9 hPa | 0 mm | 0.45 m/s, 270° | - | - |
| 1777999560 | 26.67° C | 71% | 1011 hPa | 0 mm | 0.45 m/s, 270° | - | - |
| 1777999020 | 26.11° C | 73% | 1010.8 hPa | 0 mm | 0 m/s | - | - |
| 1777998480 | 25.56° C | 75% | 1011.2 hPa | 0 mm | 0 m/s | - | - |
| 1777997940 | 25.56° C | 75% | 1011.3 hPa | 0 mm | 0.89 m/s, 17° | - | - |
| 1777997400 | 25° C | 77% | 1011.3 hPa | 0 mm | 0.45 m/s, 280° | - | - |
| 1777996860 | 24.44° C | 79% | 1011.4 hPa | 0 mm | 0 m/s | - | - |
| 1777996320 | 23.89° C | 80% | 1011.6 hPa | 0 mm | 0 m/s | - | - |
| 1777995780 | 23.89° C | 80% | 1011.5 hPa | 0 mm | 0.89 m/s, 18° | - | - |
| 1777995240 | 23.89° C | 80% | 1011.5 hPa | 0 mm | 0.89 m/s, 327° | - | - |
* Rain latest hour (hover to see other rain measurements)
** Current wind speed in m/s (hover to see current wind gust speed)